Time;durP1;ratioP1;P1;durP2;ratioP2;P2;SDS_P1;SDS_P2;PMS_P1;PMS_P2;Temp;Humidity;BMP_temperature;BMP_pressure;BME280_temperature;BME280_humidity;BME280_pressure;Samples;Min_cycle;Max_cycle;Signal;HPM_P1;HPM_P2
2023/03/15 00:00:28;;;;;;;3.97;1.13;;;;;;;;;;5085855;28;20044;-76
2023/03/15 00:03:02;;;;;;;3.10;1.40;;;;;;;;;;5086195;28;20048;-75
2023/03/15 00:05:34;;;;;;;5.07;1.50;;;;;;;;;;5085855;28;20071;-75
2023/03/15 00:08:05;;;;;;;6.18;1.70;;;;;;;;;;5084790;28;20063;-74
2023/03/15 00:10:38;;;;;;;4.85;1.45;;;;;;;;;;5085860;28;20044;-73
2023/03/15 00:13:09;;;;;;;4.50;1.23;;;;;;;;;;5086266;28;20039;-75
2023/03/15 00:15:50;;;;;;;8.50;1.75;;;;;;;;;;5086887;28;20044;-73
2023/03/15 00:18:22;;;;;;;4.35;1.70;;;;;;;;;;5085991;28;20055;-74
2023/03/15 00:20:52;;;;;;;7.65;1.48;;;;;;;;;;5086202;28;20051;-74
2023/03/15 00:23:23;;;;;;;1.77;1.30;;;;;;;;;;5089588;28;20048;-74
2023/03/15 00:25:54;;;;;;;4.35;1.63;;;;;;;;;;5089543;28;20044;-71
2023/03/15 00:28:25;;;;;;;6.00;1.50;;;;;;;;;;5090073;28;20044;-75
2023/03/15 00:31:17;;;;;;;3.17;1.50;;;;;;;;;;5088087;28;20048;-74
2023/03/15 00:33:48;;;;;;;4.93;1.73;;;;;;;;;;5089866;28;20526;-73
2023/03/15 00:36:22;;;;;;;5.22;1.65;;;;;;;;;;5090126;28;20036;-74
2023/03/15 00:38:56;;;;;;;3.67;1.55;;;;;;;;;;5090251;28;20545;-75
2023/03/15 00:41:26;;;;;;;7.75;2.00;;;;;;;;;;5088983;28;20048;-75
2023/03/15 00:43:57;;;;;;;5.78;1.63;;;;;;;;;;5089085;28;20051;-74
2023/03/15 00:46:28;;;;;;;4.72;1.77;;;;;;;;;;5088646;28;20434;-74
2023/03/15 00:48:59;;;;;;;4.60;1.80;;;;;;;;;;5089657;28;20059;-73
2023/03/15 00:51:32;;;;;;;4.63;1.88;;;;;;;;;;5088544;28;20058;-74
2023/03/15 00:54:02;;;;;;;2.35;1.70;;;;;;;;;;5090312;28;20047;-74
2023/03/15 00:56:32;;;;;;;4.05;1.70;;;;;;;;;;5088913;28;20063;-75
2023/03/15 00:59:02;;;;;;;4.70;2.05;;;;;;;;;;5089182;28;20391;-72
2023/03/15 01:01:34;;;;;;;4.88;2.20;;;;;;;;;;5089009;28;20059;-73
2023/03/15 01:04:05;;;;;;;4.55;2.00;;;;;;;;;;5089446;28;20410;-73
2023/03/15 01:06:39;;;;;;;3.55;2.10;;;;;;;;;;5089753;28;20051;-74
2023/03/15 01:09:10;;;;;;;3.53;2.10;;;;;;;;;;5087841;28;20612;-73
2023/03/15 01:11:42;;;;;;;3.35;1.80;;;;;;;;;;5087835;28;20048;-74
2023/03/15 01:14:12;;;;;;;3.10;2.20;;;;;;;;;;5089232;28;20047;-73
2023/03/15 01:16:43;;;;;;;3.17;2.22;;;;;;;;;;5089084;28;20044;-74
2023/03/15 01:19:13;;;;;;;2.83;2.00;;;;;;;;;;5087579;28;20059;-74
2023/03/15 01:21:46;;;;;;;2.83;2.00;;;;;;;;;;5088567;28;20044;-74
2023/03/15 01:24:18;;;;;;;2.95;1.90;;;;;;;;;;5086205;28;20056;-74
2023/03/15 01:26:50;;;;;;;3.05;1.75;;;;;;;;;;5090897;28;20056;-74
2023/03/15 01:29:20;;;;;;;4.28;1.95;;;;;;;;;;5103033;28;20040;-74
2023/03/15 01:31:51;;;;;;;2.35;1.90;;;;;;;;;;5089676;28;20040;-73
2023/03/15 01:34:22;;;;;;;4.22;2.15;;;;;;;;;;5086399;28;20518;-75
2023/03/15 01:36:53;;;;;;;3.10;2.20;;;;;;;;;;5097324;28;20047;-73
2023/03/15 01:39:30;;;;;;;5.20;2.30;;;;;;;;;;5088897;28;20059;-73
2023/03/15 01:42:02;;;;;;;23.65;2.90;;;;;;;;;;5086789;28;20059;-73
2023/03/15 01:44:53;;;;;;;6.15;2.40;;;;;;;;;;5086850;28;20048;-73
2023/03/15 01:47:26;;;;;;;3.33;2.13;;;;;;;;;;5087052;28;20052;-73
2023/03/15 01:50:07;;;;;;;4.00;2.15;;;;;;;;;;5070426;28;20066;-73
2023/03/15 01:52:41;;;;;;;3.47;2.00;;;;;;;;;;5086807;28;20048;-74
2023/03/15 01:55:19;;;;;;;4.05;1.98;;;;;;;;;;5087759;28;20375;-73
2023/03/15 01:58:05;;;;;;;2.28;1.90;;;;;;;;;;5087316;28;20052;-74
2023/03/15 02:00:40;;;;;;;2.75;1.77;;;;;;;;;;5086761;28;20063;-72
2023/03/15 02:03:29;;;;;;;5.07;2.40;;;;;;;;;;5087167;28;20052;-74
2023/03/15 02:06:07;;;;;;;3.70;1.83;;;;;;;;;;5087083;28;20052;-76
2023/03/15 02:08:55;;;;;;;4.43;2.20;;;;;;;;;;5087228;28;20098;-74
2023/03/15 02:11:31;;;;;;;2.60;1.70;;;;;;;;;;5087094;28;20419;-75
2023/03/15 02:14:04;;;;;;;2.63;2.00;;;;;;;;;;5087053;28;21192;-73
2023/03/15 02:16:38;;;;;;;5.60;1.95;;;;;;;;;;5086922;28;20048;-74
2023/03/15 02:19:28;;;;;;;3.00;1.83;;;;;;;;;;5087756;28;20052;-75
2023/03/15 02:22:18;;;;;;;2.80;1.85;;;;;;;;;;5087493;28;20051;-73
2023/03/15 02:24:51;;;;;;;3.13;1.80;;;;;;;;;;5086936;28;20044;-74
2023/03/15 02:27:31;;;;;;;3.67;1.85;;;;;;;;;;5086845;28;20052;-73
2023/03/15 02:30:04;;;;;;;3.30;2.17;;;;;;;;;;5086282;28;20055;-75
2023/03/15 02:32:36;;;;;;;3.08;1.83;;;;;;;;;;5086701;28;20063;-74
2023/03/15 02:35:07;;;;;;;3.60;2.22;;;;;;;;;;5087406;28;20055;-74
2023/03/15 02:37:38;;;;;;;3.30;1.90;;;;;;;;;;5086987;28;20062;-73
2023/03/15 02:40:19;;;;;;;3.67;2.20;;;;;;;;;;5086350;28;20043;-74
2023/03/15 02:42:53;;;;;;;3.78;2.08;;;;;;;;;;5087415;28;20048;-74
2023/03/15 02:45:28;;;;;;;2.58;1.98;;;;;;;;;;5085723;28;20059;-74
2023/03/15 02:48:01;;;;;;;3.40;2.00;;;;;;;;;;5087886;28;20047;-73
2023/03/15 02:50:32;;;;;;;3.00;1.85;;;;;;;;;;5087402;28;20203;-75
2023/03/15 02:53:03;;;;;;;3.33;1.95;;;;;;;;;;5087168;28;20051;-75
2023/03/15 02:55:34;;;;;;;4.63;2.20;;;;;;;;;;5087314;28;20495;-73
2023/03/15 02:58:04;;;;;;;4.85;1.83;;;;;;;;;;5085153;28;20052;-73
2023/03/15 03:00:35;;;;;;;6.55;2.25;;;;;;;;;;5086253;28;20048;-74
2023/03/15 03:03:07;;;;;;;3.50;1.90;;;;;;;;;;5087328;28;20044;-75
2023/03/15 03:05:39;;;;;;;3.15;2.20;;;;;;;;;;5086278;28;20059;-75
2023/03/15 03:08:09;;;;;;;3.13;1.90;;;;;;;;;;5086228;28;20777;-74
2023/03/15 03:10:40;;;;;;;4.05;1.88;;;;;;;;;;5087022;28;20521;-73
2023/03/15 03:13:11;;;;;;;2.97;2.00;;;;;;;;;;5087161;28;20051;-73
2023/03/15 03:15:44;;;;;;;3.17;2.08;;;;;;;;;;5086240;28;20066;-74
2023/03/15 03:18:14;;;;;;;5.32;2.33;;;;;;;;;;5086705;28;20044;-74
2023/03/15 03:20:45;;;;;;;3.00;2.33;;;;;;;;;;5085709;28;20059;-73
2023/03/15 03:23:16;;;;;;;4.07;2.25;;;;;;;;;;5085628;28;20044;-73
2023/03/15 03:25:47;;;;;;;4.18;1.90;;;;;;;;;;5086944;28;20036;-73
2023/03/15 03:28:17;;;;;;;5.13;2.05;;;;;;;;;;5086063;28;20529;-73
2023/03/15 03:30:48;;;;;;;2.78;1.83;;;;;;;;;;5085660;28;20063;-75
2023/03/15 03:33:18;;;;;;;5.60;2.20;;;;;;;;;;5085601;28;20055;-72
2023/03/15 03:35:49;;;;;;;4.03;1.92;;;;;;;;;;5087383;28;20062;-74
2023/03/15 03:38:19;;;;;;;4.28;2.03;;;;;;;;;;5085665;28;20059;-73
2023/03/15 03:40:55;;;;;;;5.00;2.08;;;;;;;;;;5085656;28;20060;-75
2023/03/15 03:43:28;;;;;;;2.38;1.85;;;;;;;;;;5085780;28;20052;-73
2023/03/15 03:46:00;;;;;;;5.72;2.30;;;;;;;;;;5086867;28;20048;-75
2023/03/15 03:48:33;;;;;;;3.47;1.85;;;;;;;;;;5085156;28;20047;-73
2023/03/15 03:51:04;;;;;;;3.47;2.45;;;;;;;;;;5085387;28;20048;-74
2023/03/15 03:53:34;;;;;;;6.03;2.22;;;;;;;;;;5085675;28;20040;-73
2023/03/15 03:56:09;;;;;;;3.28;2.20;;;;;;;;;;5085203;28;20056;-73
2023/03/15 03:58:41;;;;;;;4.07;2.30;;;;;;;;;;5089815;28;20071;-72
2023/03/15 04:01:25;;;;;;;4.82;2.10;;;;;;;;;;5090118;28;20048;-73
2023/03/15 04:03:55;;;;;;;11.15;2.75;;;;;;;;;;5089553;28;20059;-74
2023/03/15 04:06:26;;;;;;;5.00;2.72;;;;;;;;;;5090521;28;20052;-72
2023/03/15 04:08:57;;;;;;;5.28;2.78;;;;;;;;;;5089015;28;20062;-73
2023/03/15 04:11:41;;;;;;;6.38;2.65;;;;;;;;;;5089369;28;20048;-74
2023/03/15 04:14:14;;;;;;;4.85;2.65;;;;;;;;;;5088648;28;20063;-72
2023/03/15 04:16:46;;;;;;;5.32;2.25;;;;;;;;;;5089293;28;20044;-73
2023/03/15 04:19:20;;;;;;;4.03;2.63;;;;;;;;;;5089244;28;20058;-73
2023/03/15 04:21:51;;;;;;;2.92;2.33;;;;;;;;;;5089299;28;20055;-73
2023/03/15 04:24:38;;;;;;;;;;;;;;;;;;5097004;28;20055;-74
2023/03/15 04:27:16;;;;;;;4.30;2.60;;;;;;;;;;5088987;28;19924;-71
2023/03/15 04:30:15;;;;;;;4.50;2.65;;;;;;;;;;5085386;28;20044;-72
2023/03/15 04:33:11;;;;;;;5.45;2.58;;;;;;;;;;5089736;28;20414;-73
2023/03/15 04:36:05;;;;;;;5.72;3.10;;;;;;;;;;5086776;28;20056;-72
2023/03/15 04:39:06;;;;;;;2.97;2.58;;;;;;;;;;5088778;28;20048;-72
2023/03/15 04:41:48;;;;;;;4.30;2.28;;;;;;;;;;5095677;28;20399;-71
2023/03/15 04:44:34;;;;;;;2.97;2.33;;;;;;;;;;5088461;28;20426;-74
2023/03/15 04:47:22;;;;;;;5.95;2.20;;;;;;;;;;5091450;28;20044;-74
2023/03/15 04:50:14;;;;;;;7.22;2.67;;;;;;;;;;5085419;28;20060;-73
2023/03/15 04:53:14;;;;;;;3.42;2.28;;;;;;;;;;5088543;28;20048;-72
2023/03/15 04:55:47;;;;;;;3.50;2.78;;;;;;;;;;5091477;28;20400;-73
2023/03/15 04:58:37;;;;;;;5.90;2.95;;;;;;;;;;5088490;28;20075;-73
2023/03/15 05:01:30;;;;;;;4.07;2.58;;;;;;;;;;5092171;28;20059;-72
2023/03/15 05:04:32;;;;;;;;;;;;;;;;;;5066304;28;20044;-74
2023/03/15 05:07:26;;;;;;;3.83;2.28;;;;;;;;;;5085677;28;20318;-73
2023/03/15 05:10:15;;;;;;;3.92;2.90;;;;;;;;;;5090661;28;20415;-72
2023/03/15 05:13:17;;;;;;;4.13;3.08;;;;;;;;;;5076597;28;20507;-73
2023/03/15 05:16:17;;;;;;;4.53;2.80;;;;;;;;;;5051678;28;20053;-72
2023/03/15 05:18:57;;;;;;;3.40;2.65;;;;;;;;;;5090327;28;20059;-73
2023/03/15 05:21:31;;;;;;;8.48;2.60;;;;;;;;;;5094772;28;20040;-74
2023/03/15 05:24:21;;;;;;;6.10;2.95;;;;;;;;;;5092174;28;20056;-72
2023/03/15 05:27:12;;;;;;;5.35;2.88;;;;;;;;;;5088744;28;20071;-73
2023/03/15 05:29:53;;;;;;;5.47;3.13;;;;;;;;;;5088033;28;20056;-73
2023/03/15 05:32:38;;;;;;;2.92;2.50;;;;;;;;;;5095192;28;20056;-74
2023/03/15 05:35:35;;;;;;;4.15;3.05;;;;;;;;;;5088842;28;20514;-72
2023/03/15 05:38:25;;;;;;;4.82;2.88;;;;;;;;;;5087557;28;20059;-74
2023/03/15 05:41:22;;;;;;;4.72;3.08;;;;;;;;;;5088740;28;20052;-73
2023/03/15 05:44:06;;;;;;;4.00;3.03;;;;;;;;;;5089050;28;20497;-74
2023/03/15 05:46:57;;;;;;;6.22;3.33;;;;;;;;;;5088424;28;20086;-72
2023/03/15 05:49:52;;;;;;;6.45;3.70;;;;;;;;;;5086880;28;20071;-72
2023/03/15 05:52:30;;;;;;;5.15;3.22;;;;;;;;;;5087588;28;20048;-71
2023/03/15 05:55:17;;;;;;;5.68;3.28;;;;;;;;;;5073629;28;20415;-74
2023/03/15 05:58:14;;;;;;;5.70;3.65;;;;;;;;;;5086063;28;20056;-74
2023/03/15 06:01:04;;;;;;;3.67;3.15;;;;;;;;;;5088288;28;20063;-72
2023/03/15 06:03:53;;;;;;;7.72;3.60;;;;;;;;;;5092026;28;20048;-72
2023/03/15 06:06:27;;;;;;;9.23;3.42;;;;;;;;;;5086851;28;20063;-73
2023/03/15 06:09:04;;;;;;;4.15;3.30;;;;;;;;;;5086992;28;20062;-73
2023/03/15 06:11:35;;;;;;;9.93;3.35;;;;;;;;;;5087342;28;20060;-73
2023/03/15 06:14:07;;;;;;;6.65;3.35;;;;;;;;;;5087200;28;20048;-74
2023/03/15 06:16:48;;;;;;;5.07;3.80;;;;;;;;;;5087064;28;20079;-73
2023/03/15 06:19:20;;;;;;;5.22;3.80;;;;;;;;;;5086243;28;20048;-71
2023/03/15 06:21:51;;;;;;;10.73;3.83;;;;;;;;;;5086972;28;20047;-72
2023/03/15 06:24:34;;;;;;;4.95;3.60;;;;;;;;;;5086917;28;20056;-72
2023/03/15 06:27:05;;;;;;;6.20;3.65;;;;;;;;;;5087835;28;20052;-72
2023/03/15 06:29:36;;;;;;;5.88;4.00;;;;;;;;;;5086341;28;20044;-74
2023/03/15 06:32:07;;;;;;;5.72;3.55;;;;;;;;;;5086737;28;20415;-73
2023/03/15 06:34:41;;;;;;;5.45;3.38;;;;;;;;;;5086998;28;20067;-74
2023/03/15 06:37:14;;;;;;;6.18;4.03;;;;;;;;;;5086396;28;20048;-73
2023/03/15 06:40:02;;;;;;;5.28;3.65;;;;;;;;;;5087487;28;20048;-74
2023/03/15 06:42:32;;;;;;;7.70;3.47;;;;;;;;;;5086701;28;20052;-73
2023/03/15 06:45:05;;;;;;;6.15;4.03;;;;;;;;;;5085837;28;20058;-72
2023/03/15 06:47:37;;;;;;;4.45;3.85;;;;;;;;;;5087039;28;20040;-73
2023/03/15 06:50:08;;;;;;;5.80;4.05;;;;;;;;;;5086275;28;20068;-73
2023/03/15 06:52:38;;;;;;;5.47;3.38;;;;;;;;;;5086912;28;20047;-74
2023/03/15 06:55:11;;;;;;;7.13;3.70;;;;;;;;;;5085825;28;20663;-72
2023/03/15 06:57:41;;;;;;;5.28;3.42;;;;;;;;;;5086683;28;20059;-72
2023/03/15 07:00:13;;;;;;;6.43;3.63;;;;;;;;;;5087114;28;20039;-73
2023/03/15 07:02:43;;;;;;;4.53;3.70;;;;;;;;;;5085314;28;20529;-73
2023/03/15 07:05:14;;;;;;;7.22;4.45;;;;;;;;;;5087052;28;20051;-73
2023/03/15 07:07:44;;;;;;;6.07;3.17;;;;;;;;;;5086803;28;20062;-73
2023/03/15 07:10:14;;;;;;;6.28;3.85;;;;;;;;;;5086698;28;20059;-73
2023/03/15 07:12:44;;;;;;;5.97;3.92;;;;;;;;;;5086991;28;20528;-72
2023/03/15 07:15:14;;;;;;;12.02;4.72;;;;;;;;;;5087030;28;20055;-74
2023/03/15 07:17:46;;;;;;;5.40;3.55;;;;;;;;;;5086805;28;20044;-74
2023/03/15 07:20:20;;;;;;;4.13;3.60;;;;;;;;;;5086835;28;20048;-73
2023/03/15 07:22:50;;;;;;;4.15;3.22;;;;;;;;;;5087311;28;20040;-72
2023/03/15 07:25:22;;;;;;;4.00;3.20;;;;;;;;;;5086866;28;20052;-74
2023/03/15 07:27:55;;;;;;;4.90;3.65;;;;;;;;;;5086911;28;20048;-73
2023/03/15 07:30:26;;;;;;;6.60;3.95;;;;;;;;;;5086422;28;20052;-74
2023/03/15 07:32:57;;;;;;;6.95;3.92;;;;;;;;;;5086121;28;20052;-73
2023/03/15 07:35:27;;;;;;;4.97;3.85;;;;;;;;;;5085434;28;20048;-74
2023/03/15 07:37:57;;;;;;;6.57;3.60;;;;;;;;;;5085567;28;20056;-73
2023/03/15 07:40:27;;;;;;;6.10;3.75;;;;;;;;;;5086454;28;20067;-73
2023/03/15 07:42:59;;;;;;;6.28;3.65;;;;;;;;;;5086393;28;20052;-72
2023/03/15 07:45:30;;;;;;;10.55;3.50;;;;;;;;;;5085712;28;20055;-73
2023/03/15 07:48:01;;;;;;;4.50;3.53;;;;;;;;;;5086857;28;20071;-74
2023/03/15 07:50:32;;;;;;;5.03;3.63;;;;;;;;;;5086033;28;20418;-72
2023/03/15 07:53:04;;;;;;;4.60;3.20;;;;;;;;;;5086567;28;20530;-73
2023/03/15 07:55:34;;;;;;;5.15;3.55;;;;;;;;;;5086692;28;20044;-72
2023/03/15 07:58:05;;;;;;;6.65;3.53;;;;;;;;;;5086662;28;20058;-73
2023/03/15 08:00:37;;;;;;;5.30;3.40;;;;;;;;;;5086215;28;20433;-74
2023/03/15 08:03:07;;;;;;;5.07;3.55;;;;;;;;;;5086724;28;20391;-74
2023/03/15 08:05:38;;;;;;;6.90;4.38;;;;;;;;;;5086162;28;20047;-74
2023/03/15 08:08:09;;;;;;;5.93;3.58;;;;;;;;;;5085080;28;20055;-74
2023/03/15 08:10:42;;;;;;;4.85;3.60;;;;;;;;;;5086290;28;20052;-75
2023/03/15 08:13:13;;;;;;;7.28;3.70;;;;;;;;;;5085077;28;20059;-74
2023/03/15 08:15:46;;;;;;;5.75;3.58;;;;;;;;;;5086561;28;20040;-72
2023/03/15 08:18:16;;;;;;;5.25;3.63;;;;;;;;;;5086007;28;20503;-73
2023/03/15 08:20:46;;;;;;;6.75;3.88;;;;;;;;;;5084927;28;20063;-73
2023/03/15 08:23:17;;;;;;;5.50;3.47;;;;;;;;;;5086325;28;20059;-74
2023/03/15 08:25:48;;;;;;;5.68;3.65;;;;;;;;;;5086222;28;20522;-71
2023/03/15 08:28:19;;;;;;;6.03;3.80;;;;;;;;;;5085884;28;20044;-72
2023/03/15 08:30:50;;;;;;;5.32;3.08;;;;;;;;;;5085861;28;20044;-74
2023/03/15 08:33:21;;;;;;;4.25;3.47;;;;;;;;;;5086344;28;20044;-72
2023/03/15 08:35:55;;;;;;;5.22;3.92;;;;;;;;;;5086598;28;20048;-74
2023/03/15 08:38:25;;;;;;;6.50;3.80;;;;;;;;;;5086037;28;20525;-74
2023/03/15 08:40:58;;;;;;;4.57;3.42;;;;;;;;;;5085712;28;20044;-75
2023/03/15 08:43:29;;;;;;;4.90;3.42;;;;;;;;;;5087738;28;20048;-76
2023/03/15 08:45:59;;;;;;;4.60;3.85;;;;;;;;;;5090048;28;20047;-74
2023/03/15 08:48:31;;;;;;;6.20;3.63;;;;;;;;;;5089757;28;20048;-74
2023/03/15 08:51:04;;;;;;;5.68;3.80;;;;;;;;;;5089823;28;21119;-74
2023/03/15 08:53:37;;;;;;;6.57;3.60;;;;;;;;;;5089503;28;20515;-75
2023/03/15 08:56:08;;;;;;;6.57;3.83;;;;;;;;;;5090018;28;20048;-75
2023/03/15 08:58:39;;;;;;;7.28;3.95;;;;;;;;;;5088677;28;20055;-76
2023/03/15 09:01:13;;;;;;;7.78;3.58;;;;;;;;;;5089419;28;20570;-75
2023/03/15 09:03:43;;;;;;;8.85;3.72;;;;;;;;;;5087588;28;20538;-75
2023/03/15 09:06:13;;;;;;;4.05;3.42;;;;;;;;;;5089402;28;20040;-75
2023/03/15 09:08:43;;;;;;;4.30;3.42;;;;;;;;;;5089729;28;20059;-75
2023/03/15 09:11:13;;;;;;;5.15;3.80;;;;;;;;;;5089357;28;20053;-74
2023/03/15 09:13:44;;;;;;;6.57;3.50;;;;;;;;;;5089420;28;20043;-74
2023/03/15 09:16:16;;;;;;;5.72;3.55;;;;;;;;;;5089352;28;20052;-74
2023/03/15 09:18:46;;;;;;;6.75;3.47;;;;;;;;;;5089491;28;20048;-77
2023/03/15 09:21:17;;;;;;;5.65;3.15;;;;;;;;;;5089021;28;20052;-75
2023/03/15 09:23:48;;;;;;;4.20;3.30;;;;;;;;;;5089650;28;20379;-74
2023/03/15 09:26:18;;;;;;;6.68;3.60;;;;;;;;;;5089105;28;20044;-77
2023/03/15 09:28:48;;;;;;;7.28;3.67;;;;;;;;;;5088721;28;20048;-74
2023/03/15 09:31:19;;;;;;;3.97;3.55;;;;;;;;;;5087902;28;20059;-73
2023/03/15 09:33:49;;;;;;;7.50;3.70;;;;;;;;;;5088617;28;20418;-74
2023/03/15 09:36:20;;;;;;;8.23;3.85;;;;;;;;;;5088616;28;20118;-76
2023/03/15 09:38:50;;;;;;;7.18;3.78;;;;;;;;;;5088726;28;20055;-75
2023/03/15 09:41:52;;;;;;;19.25;4.45;;;;;;;;;;5087122;28;20055;-74
2023/03/15 09:44:37;;;;;;;8.95;3.30;;;;;;;;;;5089072;28;20047;-76
2023/03/15 09:47:19;;;;;;;8.40;3.83;;;;;;;;;;5089096;28;20521;-75
2023/03/15 09:49:56;;;;;;;4.93;3.67;;;;;;;;;;5088515;28;20044;-75
2023/03/15 09:52:37;;;;;;;8.63;3.17;;;;;;;;;;5088647;28;20044;-75
2023/03/15 09:55:16;;;;;;;4.40;3.13;;;;;;;;;;5088058;28;20036;-76
2023/03/15 09:58:13;;;;;;;6.07;3.50;;;;;;;;;;5088679;28;20048;-75
2023/03/15 10:00:53;;;;;;;6.25;2.97;;;;;;;;;;5088261;28;20044;-77
2023/03/15 10:03:36;;;;;;;3.33;2.50;;;;;;;;;;5087197;28;20757;-75
2023/03/15 10:06:16;;;;;;;4.38;2.63;;;;;;;;;;5088336;28;20052;-74
2023/03/15 10:08:48;;;;;;;5.75;3.08;;;;;;;;;;5087744;28;20055;-76
2023/03/15 10:11:22;;;;;;;4.28;2.72;;;;;;;;;;5088194;28;20406;-76
2023/03/15 10:14:19;;;;;;;7.43;3.67;;;;;;;;;;5088663;28;20044;-75
2023/03/15 10:16:51;;;;;;;4.72;3.15;;;;;;;;;;5088249;28;20380;-75
2023/03/15 10:20:00;;;;;;;10.00;3.10;;;;;;;;;;5087884;28;20118;-76
2023/03/15 10:22:44;;;;;;;10.80;3.50;;;;;;;;;;5087306;28;20044;-75
2023/03/15 10:25:28;;;;;;;12.35;3.65;;;;;;;;;;5087856;28;20051;-75
2023/03/15 10:28:03;;;;;;;8.98;2.78;;;;;;;;;;5087775;28;20048;-76
2023/03/15 10:30:36;;;;;;;13.48;3.13;;;;;;;;;;5087544;28;20059;-76
2023/03/15 10:33:09;;;;;;;14.05;2.83;;;;;;;;;;5087463;28;20047;-75
2023/03/15 10:35:41;;;;;;;7.03;2.30;;;;;;;;;;5087613;28;20044;-76
2023/03/15 10:38:30;;;;;;;11.52;2.05;;;;;;;;;;5087623;28;20052;-76
2023/03/15 10:41:01;;;;;;;6.05;2.30;;;;;;;;;;5087492;28;20048;-76
2023/03/15 10:43:36;;;;;;;9.30;2.47;;;;;;;;;;5087393;28;20522;-76
2023/03/15 10:46:11;;;;;;;6.45;2.03;;;;;;;;;;5087392;28;20048;-76
2023/03/15 10:48:55;;;;;;;9.57;1.85;;;;;;;;;;5087015;28;20036;-76
2023/03/15 10:51:33;;;;;;;11.10;1.95;;;;;;;;;;5087217;28;20051;-77
2023/03/15 10:54:12;;;;;;;7.07;3.15;;;;;;;;;;5087284;28;20518;-76
2023/03/15 10:57:06;;;;;;;4.55;1.77;;;;;;;;;;5087283;28;20048;-75
2023/03/15 10:59:36;;;;;;;5.38;1.63;;;;;;;;;;5086770;28;20071;-78
2023/03/15 11:02:27;;;;;;;4.85;1.63;;;;;;;;;;5087310;28;20066;-76
2023/03/15 11:05:14;;;;;;;6.45;1.73;;;;;;;;;;5087305;28;20502;-79
2023/03/15 11:07:59;;;;;;;2.80;1.42;;;;;;;;;;5084477;28;20521;-76
2023/03/15 11:10:33;;;;;;;2.25;1.48;;;;;;;;;;5087045;28;20474;-75
2023/03/15 11:13:12;;;;;;;13.98;2.10;;;;;;;;;;5086998;28;20048;-75
2023/03/15 11:16:05;;;;;;;4.18;1.50;;;;;;;;;;5086886;28;20043;-76
2023/03/15 11:18:45;;;;;;;5.75;1.80;;;;;;;;;;5086861;28;20384;-78
2023/03/15 11:21:18;;;;;;;3.90;1.73;;;;;;;;;;5087075;28;20040;-76
2023/03/15 11:23:51;;;;;;;2.55;1.45;;;;;;;;;;5087105;28;20052;-76
2023/03/15 11:26:24;;;;;;;3.58;1.50;;;;;;;;;;5087326;28;20044;-76
2023/03/15 11:29:27;;;;;;;6.88;1.65;;;;;;;;;;5085765;28;20474;-80
2023/03/15 11:32:11;;;;;;;5.75;2.47;;;;;;;;;;5080175;28;20059;-76
2023/03/15 11:34:53;;;;;;;5.72;1.60;;;;;;;;;;5085550;28;20060;-76
2023/03/15 11:37:33;;;;;;;;;;;;;;;;;;5085524;28;20071;-76
2023/03/15 11:40:24;;;;;;;5.90;2.00;;;;;;;;;;5086892;28;19923;-76
2023/03/15 11:43:02;;;;;;;4.20;1.52;;;;;;;;;;5086802;28;20046;-76
2023/03/15 11:45:44;;;;;;;5.30;1.58;;;;;;;;;;5086552;28;20052;-75
2023/03/15 11:49:27;;;;;;;3.22;1.75;;;;;;;;;;5087081;28;20052;-76
2023/03/15 11:51:59;;;;;;;4.00;1.63;;;;;;;;;;5048911;28;20063;-76
2023/03/15 11:54:31;;;;;;;3.63;1.30;;;;;;;;;;5086786;28;20414;-76
2023/03/15 11:57:39;;;;;;;3.60;1.20;;;;;;;;;;5084947;28;20044;-79
2023/03/15 12:00:45;;;;;;;9.57;7.10;;;;;;;;;;5086525;28;20510;-76
2023/03/15 12:04:12;;;;;;;2.88;1.10;;;;;;;;;;5076894;28;20515;-76
2023/03/15 12:06:44;;;;;;;4.82;1.40;;;;;;;;;;5023423;28;20068;-76
2023/03/15 12:09:32;;;;;;;2.67;1.23;;;;;;;;;;5085394;28;20526;-76
2023/03/15 12:12:26;;;;;;;8.07;1.83;;;;;;;;;;5086740;28;20047;-76
2023/03/15 12:15:26;;;;;;;4.50;1.55;;;;;;;;;;5086823;28;20052;-81
2023/03/15 12:18:05;;;;;;;2.80;1.20;;;;;;;;;;5087704;28;20051;-76
2023/03/15 12:20:42;;;;;;;4.75;1.20;;;;;;;;;;5090736;28;20407;-74
2023/03/15 12:23:16;;;;;;;4.35;1.30;;;;;;;;;;5090649;28;20052;-78
2023/03/15 12:25:56;;;;;;;2.05;1.00;;;;;;;;;;5090293;28;20486;-76
2023/03/15 12:28:37;;;;;;;4.13;1.30;;;;;;;;;;5089439;28;20040;-75
2023/03/15 12:31:12;;;;;;;3.28;1.02;;;;;;;;;;5090136;28;20043;-76
2023/03/15 12:33:47;;;;;;;3.85;1.20;;;;;;;;;;5090654;28;20051;-76
2023/03/15 12:36:38;;;;;;;2.95;1.05;;;;;;;;;;5089922;28;20048;-77
2023/03/15 12:39:15;;;;;;;5.68;1.80;;;;;;;;;;5090516;28;20052;-76
2023/03/15 12:41:48;;;;;;;4.95;1.33;;;;;;;;;;5090061;28;20048;-76
2023/03/15 12:44:38;;;;;;;2.10;0.80;;;;;;;;;;5089959;28;20052;-76
2023/03/15 12:47:10;;;;;;;11.50;1.23;;;;;;;;;;5089984;28;20063;-76
2023/03/15 12:49:43;;;;;;;4.68;0.90;;;;;;;;;;5090334;28;20044;-73
2023/03/15 12:52:52;;;;;;;6.78;1.00;;;;;;;;;;5089757;28;20055;-75
2023/03/15 12:55:22;;;;;;;1.95;0.88;;;;;;;;;;5059442;28;20545;-74
2023/03/15 12:57:56;;;;;;;3.00;0.63;;;;;;;;;;5088172;28;20055;-74
2023/03/15 13:00:31;;;;;;;0.63;0.50;;;;;;;;;;5089461;28;20071;-76
2023/03/15 13:03:05;;;;;;;;;;;;;;;;;;5090781;28;20521;-75
2023/03/15 13:05:46;;;;;;;0.68;0.40;;;;;;;;;;5089559;28;19931;-75
2023/03/15 13:08:43;;;;;;;0.88;0.45;;;;;;;;;;5089156;28;20036;-77
2023/03/15 13:11:50;;;;;;;2.20;0.60;;;;;;;;;;5089379;28;20525;-75
2023/03/15 13:14:43;;;;;;;0.68;0.50;;;;;;;;;;5089304;28;20040;-76
2023/03/15 13:17:44;;;;;;;0.85;0.50;;;;;;;;;;5089098;28;20048;-75
2023/03/15 13:20:35;;;;;;;0.55;0.40;;;;;;;;;;5084013;28;20059;-73
2023/03/15 13:23:13;;;;;;;2.78;0.60;;;;;;;;;;5089352;28;20040;-75
2023/03/15 13:25:57;;;;;;;0.95;0.52;;;;;;;;;;5090017;28;20036;-76
2023/03/15 13:28:36;;;;;;;3.00;1.10;;;;;;;;;;5088953;28;20044;-74
2023/03/15 13:31:21;;;;;;;0.35;0.32;;;;;;;;;;5088212;28;20395;-76
2023/03/15 13:33:56;;;;;;;;;;;;;;;;;;5089575;28;20044;-75
2023/03/15 13:36:56;;;;;;;2.83;0.68;;;;;;;;;;5089182;28;19924;-75
2023/03/15 13:39:36;;;;;;;3.40;0.65;;;;;;;;;;5082748;28;20059;-75
2023/03/15 13:42:18;;;;;;;1.65;0.40;;;;;;;;;;5089449;28;20061;-75
2023/03/15 13:45:14;;;;;;;2.05;0.80;;;;;;;;;;5088679;28;20781;-78
2023/03/15 13:47:46;;;;;;;2.90;0.55;;;;;;;;;;5088767;28;20384;-75
2023/03/15 13:50:19;;;;;;;0.40;0.30;;;;;;;;;;5088674;28;20054;-75
2023/03/15 13:52:50;;;;;;;1.55;0.52;;;;;;;;;;5086616;28;20056;-75
2023/03/15 13:55:33;;;;;;;0.40;0.40;;;;;;;;;;5088661;28;20048;-76
2023/03/15 13:58:09;;;;;;;3.03;0.57;;;;;;;;;;5088480;28;20052;-75
2023/03/15 14:00:40;;;;;;;0.82;0.57;;;;;;;;;;5088354;28;20047;-76
2023/03/15 14:03:22;;;;;;;3.85;0.65;;;;;;;;;;5086114;28;20052;-74
2023/03/15 14:05:55;;;;;;;1.85;0.52;;;;;;;;;;5086926;28;20392;-75
2023/03/15 14:08:32;;;;;;;4.13;0.77;;;;;;;;;;5086210;28;20051;-75
2023/03/15 14:11:03;;;;;;;0.80;0.40;;;;;;;;;;5088137;28;20050;-75
2023/03/15 14:13:34;;;;;;;0.70;0.50;;;;;;;;;;5086586;28;20067;-75
2023/03/15 14:16:13;;;;;;;1.05;0.50;;;;;;;;;;5088825;28;20067;-75
2023/03/15 14:18:50;;;;;;;1.40;0.50;;;;;;;;;;5086063;28;20052;-76
2023/03/15 14:21:30;;;;;;;1.17;0.43;;;;;;;;;;5088073;28;20055;-76
2023/03/15 14:24:05;;;;;;;0.63;0.50;;;;;;;;;;5088000;28;20063;-77
2023/03/15 14:26:37;;;;;;;5.28;1.50;;;;;;;;;;5087783;28;20048;-74
2023/03/15 14:29:33;;;;;;;1.90;0.60;;;;;;;;;;5087426;28;20040;-75
2023/03/15 14:32:21;;;;;;;1.42;0.43;;;;;;;;;;5088096;28;20036;-75
2023/03/15 14:35:03;;;;;;;1.85;0.47;;;;;;;;;;5085847;28;20052;-75
2023/03/15 14:37:41;;;;;;;1.00;0.50;;;;;;;;;;5088086;28;20071;-75
2023/03/15 14:40:21;;;;;;;2.08;0.50;;;;;;;;;;5087697;28;20051;-75
2023/03/15 14:42:51;;;;;;;1.17;0.52;;;;;;;;;;5087319;28;20071;-75
2023/03/15 14:45:22;;;;;;;0.60;0.43;;;;;;;;;;5087439;28;20048;-75
2023/03/15 14:47:57;;;;;;;0.88;0.80;;;;;;;;;;5087737;28;20050;-75
2023/03/15 14:50:30;;;;;;;;;;;;;;;;;;5088204;28;20395;-75
2023/03/15 14:53:01;;;;;;;2.55;0.80;;;;;;;;;;5087422;28;19939;-75
2023/03/15 14:55:34;;;;;;;1.85;0.60;;;;;;;;;;5087574;28;20051;-75
2023/03/15 14:58:16;;;;;;;2.47;0.50;;;;;;;;;;5087673;28;20044;-75
2023/03/15 15:00:50;;;;;;;7.63;0.85;;;;;;;;;;5087949;28;20573;-75
2023/03/15 15:03:33;;;;;;;4.72;0.90;;;;;;;;;;5087737;28;20044;-75
2023/03/15 15:06:07;;;;;;;1.05;0.65;;;;;;;;;;5087635;28;20044;-76
2023/03/15 15:08:40;;;;;;;4.35;0.40;;;;;;;;;;5087210;28;20044;-75
2023/03/15 15:11:11;;;;;;;11.15;0.88;;;;;;;;;;5086825;28;20048;-76
2023/03/15 15:13:42;;;;;;;1.75;0.55;;;;;;;;;;5087232;28;20052;-76
2023/03/15 15:16:13;;;;;;;0.47;0.43;;;;;;;;;;5087029;28;20047;-74
2023/03/15 15:18:44;;;;;;;3.20;0.75;;;;;;;;;;5087414;28;20048;-76
2023/03/15 15:21:30;;;;;;;0.68;0.57;;;;;;;;;;5086276;28;20051;-75
2023/03/15 15:24:06;;;;;;;1.38;0.70;;;;;;;;;;5086960;28;20044;-75
2023/03/15 15:26:37;;;;;;;0.88;0.40;;;;;;;;;;5086336;28;20047;-77
2023/03/15 15:29:10;;;;;;;0.93;0.50;;;;;;;;;;5087333;28;20044;-76
2023/03/15 15:31:43;;;;;;;1.92;0.60;;;;;;;;;;5086465;28;20384;-74
2023/03/15 15:34:14;;;;;;;1.42;0.40;;;;;;;;;;5084976;28;20078;-74
2023/03/15 15:36:46;;;;;;;0.32;0.32;;;;;;;;;;5086513;28;20054;-73
2023/03/15 15:39:19;;;;;;;1.38;0.50;;;;;;;;;;5086719;28;20048;-75
2023/03/15 15:41:51;;;;;;;1.65;0.60;;;;;;;;;;5087202;28;20044;-75
2023/03/15 15:44:26;;;;;;;0.82;0.52;;;;;;;;;;5086778;28;20048;-76